Time;durP1;ratioP1;P1;durP2;ratioP2;P2;SDS_P1;SDS_P2;PMS_P1;PMS_P2;Temp;Humidity;BMP_temperature;BMP_pressure;BME280_temperature;BME280_humidity;BME280_pressure;Samples;Min_cycle;Max_cycle;Signal;HPM_P1;HPM_P2
2020/12/13 00:02:23;;;;;;;63.27;36.33;;;9.90;88.90;;;;;;5116979;27;20027;-80
2020/12/13 00:04:48;;;;;;;58.20;35.17;;;9.90;89.00;;;;;;5099203;27;20070;-81
2020/12/13 00:07:16;;;;;;;58.37;35.47;;;9.90;89.10;;;;;;5116464;27;20110;-81
2020/12/13 00:09:41;;;;;;;61.97;36.00;;;9.90;89.10;;;;;;5134839;27;20030;-81
2020/12/13 00:12:07;;;;;;;62.13;36.77;;;9.90;89.00;;;;;;5134411;27;20035;-81
2020/12/13 00:14:33;;;;;;;63.60;37.63;;;9.90;89.10;;;;;;5115476;27;20035;-81
2020/12/13 00:16:59;;;;;;;58.73;36.07;;;10.00;89.10;;;;;;5095462;28;20027;-81
2020/12/13 00:19:25;;;;;;;66.87;37.13;;;10.00;89.00;;;;;;5112864;28;20023;-81
2020/12/13 00:21:53;;;;;;;60.63;37.00;;;9.90;89.00;;;;;;5123281;27;20046;-80
2020/12/13 00:24:19;;;;;;;60.73;36.20;;;9.90;89.00;;;;;;5135591;27;20015;-81
2020/12/13 00:26:45;;;;;;;55.63;34.03;;;9.90;89.00;;;;;;5152987;27;20066;-81
2020/12/13 00:29:12;;;;;;;57.93;35.63;;;9.90;89.00;;;;;;5135860;27;20030;-80
2020/12/13 00:31:38;;;;;;;59.67;36.07;;;9.90;89.00;;;;;;5128117;27;20027;-81
2020/12/13 00:34:04;;;;;;;54.87;33.73;;;9.90;89.10;;;;;;5117744;27;20039;-81
2020/12/13 00:36:29;;;;;;;55.83;33.37;;;9.90;89.10;;;;;;5101653;27;20051;-82
2020/12/13 00:38:55;;;;;;;57.93;34.20;;;9.80;89.10;;;;;;5099272;28;20035;-82
2020/12/13 00:41:20;;;;;;;54.73;32.93;;;9.90;89.20;;;;;;5080642;28;20036;-81
2020/12/13 00:43:46;;;;;;;58.23;34.50;;;9.90;89.20;;;;;;5105179;27;20038;-81
2020/12/13 00:46:12;;;;;;;56.20;33.17;;;9.90;89.10;;;;;;5131776;27;20466;-80
2020/12/13 00:48:37;;;;;;;61.60;35.27;;;9.80;89.10;;;;;;5133263;27;20067;-81
2020/12/13 00:51:03;;;;;;;56.57;33.83;;;9.80;89.20;;;;;;5098197;27;20474;-81
2020/12/13 00:53:28;;;;;;;55.53;33.37;;;9.80;89.20;;;;;;5114048;27;20103;-81
2020/12/13 00:55:54;;;;;;;57.23;35.37;;;9.80;89.20;;;;;;5133544;27;20035;-81
2020/12/13 00:58:20;;;;;;;55.67;34.10;;;9.80;89.20;;;;;;5115751;27;20015;-81
2020/12/13 01:00:45;;;;;;;53.57;33.73;;;9.80;89.20;;;;;;5097358;27;20081;-81
2020/12/13 01:03:11;;;;;;;57.20;34.37;;;9.70;89.10;;;;;;5089478;28;20403;-80
2020/12/13 01:05:37;;;;;;;58.40;34.93;;;9.60;89.10;;;;;;5091231;28;20028;-81
2020/12/13 01:08:03;;;;;;;52.40;32.37;;;9.60;89.20;;;;;;5092256;28;20472;-82
2020/12/13 01:10:29;;;;;;;53.37;33.37;;;9.60;89.30;;;;;;5074026;28;20032;-81
2020/12/13 01:12:54;;;;;;;51.07;32.77;;;9.60;89.50;;;;;;5091885;28;20466;-80
2020/12/13 01:15:20;;;;;;;56.57;33.10;;;9.60;89.50;;;;;;5092659;28;20107;-82
2020/12/13 01:17:47;;;;;;;52.10;32.30;;;9.60;89.60;;;;;;5090856;28;20236;-81
2020/12/13 01:20:14;;;;;;;55.87;33.37;;;9.70;89.50;;;;;;5071890;28;20366;-82
2020/12/13 01:22:40;;;;;;;57.97;36.60;;;9.70;89.40;;;;;;5071235;28;20110;-80
2020/12/13 01:25:07;;;;;;;55.37;34.23;;;9.80;89.20;;;;;;5089083;28;20024;-82
2020/12/13 01:27:34;;;;;;;56.00;34.77;;;9.70;89.50;;;;;;5097861;28;20048;-82
2020/12/13 01:30:00;;;;;;;54.63;35.30;;;9.70;89.00;;;;;;5097630;28;20028;-79
2020/12/13 01:32:26;;;;;;;52.07;33.20;;;9.70;88.90;;;;;;5093419;28;20024;-79
2020/12/13 01:34:51;;;;;;;53.63;33.70;;;9.80;88.90;;;;;;5090444;28;20043;-82
2020/12/13 01:37:17;;;;;;;49.60;32.50;;;9.80;88.90;;;;;;5057903;28;20486;-81
2020/12/13 01:39:43;;;;;;;51.80;32.17;;;9.80;88.90;;;;;;5090393;28;20028;-81
2020/12/13 01:42:08;;;;;;;49.57;31.67;;;9.80;88.80;;;;;;5090369;28;20046;-82
2020/12/13 01:44:37;;;;;;;47.03;30.57;;;9.90;88.70;;;;;;5072451;28;20119;-82
2020/12/13 01:47:05;;;;;;;48.40;31.73;;;9.90;88.70;;;;;;5092437;28;20026;-81
2020/12/13 01:49:35;;;;;;;46.47;31.03;;;9.90;88.60;;;;;;5089324;28;20027;-81
2020/12/13 01:54:55;;;;;;;47.60;30.93;;;9.90;88.70;;;;;;5088982;28;20097;-81
2020/12/13 01:57:22;;;;;;;48.38;31.83;;;9.90;88.60;;;;;;5091230;28;20112;-82
2020/12/13 01:59:51;;;;;;;43.23;29.10;;;9.90;88.50;;;;;;5084445;28;20020;-82
2020/12/13 02:02:22;;;;;;;46.20;30.83;;;9.90;88.50;;;;;;5085488;28;20056;-81
2020/12/13 02:04:52;;;;;;;49.67;30.07;;;9.90;88.50;;;;;;5125329;27;20053;-80
2020/12/13 02:07:20;;;;;;;44.80;30.97;;;9.90;88.50;;;;;;5132831;27;20027;-81
2020/12/13 02:09:46;;;;;;;46.03;30.87;;;9.90;88.40;;;;;;5110776;27;20038;-81
2020/12/13 02:12:11;;;;;;;45.07;31.30;;;10.00;88.50;;;;;;5112730;27;20031;-80
2020/12/13 02:14:37;;;;;;;39.73;28.60;;;10.00;88.50;;;;;;5113202;27;20027;-81
2020/12/13 02:17:03;;;;;;;41.60;28.97;;;10.00;88.50;;;;;;5111159;27;20045;-81
2020/12/13 02:19:31;;;;;;;40.83;27.97;;;10.10;88.40;;;;;;5131119;27;20419;-79
2020/12/13 02:21:59;;;;;;;38.37;28.60;;;10.10;88.40;;;;;;5114165;27;20551;-81
2020/12/13 02:24:25;;;;;;;40.80;29.97;;;10.10;88.40;;;;;;5108688;28;20435;-82
2020/12/13 02:26:51;;;;;;;42.47;29.23;;;10.20;88.30;;;;;;5093307;28;20020;-81
2020/12/13 02:29:17;;;;;;;46.13;30.53;;;10.10;88.30;;;;;;5097887;27;20039;-80
2020/12/13 02:31:43;;;;;;;42.10;29.57;;;10.10;88.30;;;;;;5131909;27;20035;-80
2020/12/13 02:34:09;;;;;;;43.20;29.80;;;10.10;88.40;;;;;;5097252;27;20381;-81
2020/12/13 02:36:34;;;;;;;37.40;27.80;;;10.10;88.30;;;;;;5096619;27;20027;-81
2020/12/13 02:39:02;;;;;;;42.97;29.27;;;10.10;88.30;;;;;;5112441;27;20547;-78
2020/12/13 02:41:27;;;;;;;39.23;27.87;;;10.10;88.30;;;;;;5098104;27;20058;-82
2020/12/13 02:43:53;;;;;;;38.07;26.47;;;10.10;88.20;;;;;;5112833;27;20467;-82
2020/12/13 02:46:18;;;;;;;35.77;26.33;;;10.10;88.20;;;;;;5114717;27;20027;-81
2020/12/13 02:48:44;;;;;;;39.50;28.30;;;10.10;88.30;;;;;;5095936;27;20031;-81
2020/12/13 02:51:09;;;;;;;36.87;26.43;;;10.10;88.20;;;;;;5113939;27;20031;-80
2020/12/13 02:53:35;;;;;;;39.57;28.60;;;10.10;88.20;;;;;;5122781;27;20027;-80
2020/12/13 02:56:01;;;;;;;38.03;28.43;;;10.10;88.20;;;;;;5093386;28;20081;-80
2020/12/13 02:58:26;;;;;;;36.40;26.17;;;10.00;88.20;;;;;;5130277;27;20083;-81
2020/12/13 03:00:56;;;;;;;36.90;27.17;;;10.00;88.30;;;;;;5092923;28;20676;-82
2020/12/13 03:03:22;;;;;;;35.80;26.27;;;10.00;88.30;;;;;;5114943;28;20051;-78
2020/12/13 03:05:48;;;;;;;40.13;27.47;;;10.00;88.30;;;;;;5105319;27;20043;-82
2020/12/13 03:08:14;;;;;;;36.40;25.80;;;10.00;88.20;;;;;;5092165;27;20079;-81
2020/12/13 03:10:39;;;;;;;38.47;27.27;;;10.00;88.20;;;;;;5087175;28;20032;-82
2020/12/13 03:13:05;;;;;;;38.33;27.23;;;10.00;88.20;;;;;;5137317;27;20544;-83
2020/12/13 03:15:31;;;;;;;37.90;26.47;;;10.00;88.20;;;;;;5118477;27;20042;-78
2020/12/13 03:17:56;;;;;;;40.90;27.83;;;10.00;88.20;;;;;;5103158;27;20046;-83
2020/12/13 03:20:22;;;;;;;36.30;25.77;;;10.00;88.10;;;;;;5120277;27;20031;-83
2020/12/13 03:22:47;;;;;;;36.93;25.50;;;10.00;88.10;;;;;;5120256;27;20079;-82
2020/12/13 03:25:13;;;;;;;35.43;25.87;;;10.00;88.20;;;;;;5119206;27;20383;-83
2020/12/13 03:27:39;;;;;;;38.77;27.37;;;10.00;88.20;;;;;;5121279;27;20459;-83
2020/12/13 03:30:05;;;;;;;36.07;26.40;;;10.10;88.10;;;;;;5091239;28;20028;-83
2020/12/13 03:32:35;;;;;;;36.87;25.47;;;10.00;88.10;;;;;;5100438;28;20036;-83
2020/12/13 03:35:02;;;;;;;38.70;26.20;;;10.00;88.00;;;;;;5102874;27;20470;-83
2020/12/13 03:37:28;;;;;;;39.40;26.30;;;10.10;88.00;;;;;;5120660;27;20023;-82
2020/12/13 03:39:53;;;;;;;36.37;26.80;;;10.00;88.00;;;;;;5100602;27;20246;-81
2020/12/13 03:42:19;;;;;;;36.90;25.30;;;10.00;88.00;;;;;;5099342;28;20394;-81
2020/12/13 03:44:45;;;;;;;34.10;24.43;;;10.00;88.10;;;;;;5117469;28;20088;-81
2020/12/13 03:47:10;;;;;;;37.87;25.47;;;10.00;88.20;;;;;;5108004;27;20031;-82
2020/12/13 03:49:36;;;;;;;34.90;23.63;;;10.00;88.20;;;;;;5117061;27;20160;-78
2020/12/13 03:52:01;;;;;;;35.23;25.67;;;10.10;88.10;;;;;;5098813;28;20027;-82
2020/12/13 03:54:27;;;;;;;33.97;23.63;;;10.10;88.00;;;;;;5119715;27;20355;-81
2020/12/13 03:56:53;;;;;;;34.00;24.23;;;10.10;88.10;;;;;;5102717;27;20032;-82
2020/12/13 03:59:18;;;;;;;34.33;24.70;;;10.00;87.90;;;;;;5119047;27;20046;-81
2020/12/13 04:01:44;;;;;;;34.07;23.33;;;10.10;87.90;;;;;;5106652;28;20027;-82
2020/12/13 04:04:09;;;;;;;33.30;22.63;;;10.00;87.90;;;;;;5103508;27;20043;-82
2020/12/13 04:06:36;;;;;;;33.60;24.07;;;10.10;88.00;;;;;;5119291;27;20497;-78
2020/12/13 04:09:02;;;;;;;32.13;23.33;;;10.00;87.90;;;;;;5119101;27;20019;-83
2020/12/13 04:11:28;;;;;;;34.57;24.63;;;10.00;87.90;;;;;;5101169;27;20031;-82
2020/12/13 04:13:54;;;;;;;34.17;23.60;;;9.90;87.90;;;;;;5136997;27;20588;-82
2020/12/13 04:16:19;;;;;;;32.53;22.90;;;9.90;87.90;;;;;;5084169;27;20034;-82
2020/12/13 04:18:45;;;;;;;34.83;24.70;;;9.90;87.80;;;;;;5114324;27;20032;-82
2020/12/13 04:21:10;;;;;;;35.93;23.50;;;9.90;87.80;;;;;;5100331;27;20102;-83
2020/12/13 04:23:36;;;;;;;31.20;22.80;;;9.80;88.00;;;;;;5116733;27;20034;-78
2020/12/13 04:26:02;;;;;;;34.03;23.87;;;9.80;88.00;;;;;;5115910;27;20363;-82
2020/12/13 04:28:28;;;;;;;32.47;23.57;;;9.90;88.00;;;;;;5096931;27;20490;-82
2020/12/13 04:30:54;;;;;;;32.27;23.90;;;9.80;88.00;;;;;;5115981;27;20039;-81
2020/12/13 04:33:19;;;;;;;38.77;25.90;;;9.80;88.00;;;;;;5083387;28;20114;-85
2020/12/13 04:35:45;;;;;;;35.70;26.13;;;9.80;88.00;;;;;;5078467;28;20032;-82
2020/12/13 04:38:10;;;;;;;40.17;26.63;;;9.80;88.00;;;;;;5096696;28;20360;-82
2020/12/13 04:40:36;;;;;;;39.10;27.27;;;9.80;88.00;;;;;;5129755;27;20144;-78
2020/12/13 04:43:02;;;;;;;34.97;25.77;;;9.80;88.00;;;;;;5132823;27;20034;-82
2020/12/13 04:45:29;;;;;;;38.70;26.67;;;9.70;88.00;;;;;;5098681;27;20034;-82
2020/12/13 04:48:06;;;;;;;42.40;28.17;;;9.70;88.00;;;;;;5133168;27;20035;-83
2020/12/13 04:50:35;;;;;;;42.57;30.30;;;9.70;88.10;;;;;;5115913;27;20475;-82
2020/12/13 04:53:05;;;;;;;42.20;28.77;;;9.60;87.90;;;;;;5111785;28;20874;-83
2020/12/13 04:55:34;;;;;;;42.13;29.67;;;9.60;87.90;;;;;;5114702;27;20387;-83
2020/12/13 04:58:00;;;;;;;39.13;27.67;;;9.60;88.00;;;;;;5114160;27;20072;-83
2020/12/13 05:00:29;;;;;;;40.23;28.07;;;9.60;88.00;;;;;;5115136;27;20027;-83
2020/12/13 05:02:57;;;;;;;44.47;28.83;;;9.60;87.90;;;;;;5114428;27;20382;-83
2020/12/13 05:05:22;;;;;;;44.07;29.63;;;9.60;87.90;;;;;;5134197;27;20027;-81
2020/12/13 05:07:48;;;;;;;43.30;28.73;;;9.60;87.80;;;;;;5097660;27;20038;-82
2020/12/13 05:10:13;;;;;;;40.30;29.53;;;9.50;87.70;;;;;;5116438;27;20046;-82
2020/12/13 05:12:39;;;;;;;42.10;28.80;;;9.50;87.80;;;;;;5094987;28;20490;-78
2020/12/13 05:15:05;;;;;;;46.77;31.77;;;9.60;87.80;;;;;;5107201;27;20126;-82
2020/12/13 05:17:33;;;;;;;49.33;30.93;;;9.50;87.50;;;;;;5116285;27;20027;-82
2020/12/13 05:19:59;;;;;;;41.67;27.83;;;9.40;87.60;;;;;;5101643;27;20033;-81
2020/12/13 05:22:24;;;;;;;42.33;28.83;;;9.40;87.70;;;;;;5114818;27;20047;-80
2020/12/13 05:24:50;;;;;;;41.17;27.27;;;9.40;87.70;;;;;;5098215;27;20037;-82
2020/12/13 05:27:22;;;;;;;43.90;28.90;;;9.40;87.70;;;;;;5133244;27;20026;-82
2020/12/13 05:29:51;;;;;;;44.63;28.33;;;9.40;87.60;;;;;;5114354;27;20035;-83
2020/12/13 05:32:20;;;;;;;40.33;28.37;;;9.40;87.60;;;;;;5133059;27;20110;-82
2020/12/13 05:34:48;;;;;;;38.67;26.77;;;9.30;87.60;;;;;;5114799;27;20031;-80
2020/12/13 05:37:15;;;;;;;43.43;27.10;;;9.30;87.50;;;;;;5098257;27;20489;-82
2020/12/13 05:39:49;;;;;;;40.70;26.77;;;9.30;87.50;;;;;;5115248;27;20053;-78
2020/12/13 05:42:38;;;;;;;41.77;26.27;;;9.30;87.60;;;;;;5132061;27;20031;-83
2020/12/13 05:45:20;;;;;;;40.23;27.20;;;9.30;87.60;;;;;;5132883;27;20492;-83
2020/12/13 05:53:19;;;;;;;45.20;28.30;;;9.30;87.40;;;;;;5104727;27;20168;-82
2020/12/13 05:55:45;;;;;;;35.67;25.93;;;9.30;87.30;;;;;;5114363;27;20057;-78
2020/12/13 05:58:11;;;;;;;41.43;26.93;;;9.30;87.40;;;;;;5100149;27;20110;-83
2020/12/13 06:00:37;;;;;;;41.47;27.13;;;9.30;87.40;;;;;;5123972;27;20039;-84
2020/12/13 06:03:06;;;;;;;41.07;26.93;;;9.40;87.30;;;;;;5124595;27;20116;-82
2020/12/13 06:05:36;;;;;;;38.53;26.07;;;9.40;87.20;;;;;;5126300;27;20027;-83
2020/12/13 06:08:04;;;;;;;40.13;25.83;;;9.40;87.30;;;;;;5141301;27;20079;-78
2020/12/13 06:10:36;;;;;;;35.10;23.70;;;9.30;87.20;;;;;;5125249;27;20023;-81
2020/12/13 06:13:04;;;;;;;32.07;22.73;;;9.30;87.30;;;;;;5124620;27;20019;-82
2020/12/13 06:15:32;;;;;;;35.87;23.00;;;9.30;87.30;;;;;;5137786;27;20041;-83
2020/12/13 06:17:59;;;;;;;29.63;21.97;;;9.30;87.30;;;;;;5113093;27;20023;-82
2020/12/13 06:20:26;;;;;;;28.77;20.50;;;9.30;87.40;;;;;;5116513;27;20031;-81
2020/12/13 06:22:53;;;;;;;31.20;19.80;;;9.30;87.30;;;;;;5130489;27;20049;-83
2020/12/13 06:25:20;;;;;;;32.00;17.30;;;9.30;87.30;;;;;;5113059;27;20035;-83
2020/12/13 06:27:51;;;;;;;29.53;18.17;;;9.30;87.20;;;;;;5133772;27;20467;-79
2020/12/13 06:30:18;;;;;;;22.97;16.77;;;9.30;87.10;;;;;;5114379;28;20040;-81
2020/12/13 06:32:46;;;;;;;25.20;16.63;;;9.30;87.20;;;;;;5114228;27;20042;-78
2020/12/13 06:35:14;;;;;;;23.43;16.13;;;9.30;87.00;;;;;;5114493;28;20023;-83
2020/12/13 06:37:40;;;;;;;26.97;16.90;;;9.40;87.10;;;;;;5097275;27;20083;-82
2020/12/13 06:40:08;;;;;;;25.43;16.27;;;9.30;86.90;;;;;;5112297;28;20525;-83
2020/12/13 06:42:42;;;;;;;21.83;15.57;;;9.20;87.00;;;;;;5114589;27;20027;-82
2020/12/13 06:45:09;;;;;;;24.00;14.90;;;9.20;87.00;;;;;;5130804;27;20115;-82
2020/12/13 06:47:40;;;;;;;22.53;15.10;;;9.20;87.10;;;;;;5111671;27;20485;-83
2020/12/13 06:50:11;;;;;;;21.73;14.63;;;9.10;87.10;;;;;;5111726;28;20471;-83
2020/12/13 06:52:37;;;;;;;23.53;14.93;;;9.10;87.70;;;;;;5102799;27;20092;-83
2020/12/13 06:55:06;;;;;;;21.87;14.37;;;9.20;87.20;;;;;;5132272;27;20019;-83
2020/12/13 06:57:34;;;;;;;24.03;14.83;;;9.20;87.20;;;;;;5114367;28;20023;-83
2020/12/13 07:00:10;;;;;;;23.47;13.83;;;9.20;87.10;;;;;;5097105;28;20042;-83
2020/12/13 07:02:55;;;;;;;22.43;13.73;;;9.20;87.10;;;;;;5098441;28;20390;-83
2020/12/13 07:05:22;;;;;;;24.67;13.33;;;9.20;87.10;;;;;;5117546;28;20034;-82
2020/12/13 07:07:52;;;;;;;27.40;14.57;;;9.20;87.10;;;;;;5110975;28;20041;-77
2020/12/13 07:10:18;;;;;;;21.27;13.33;;;9.30;87.00;;;;;;5105761;28;20038;-82
2020/12/13 07:12:55;;;;;;;20.23;13.03;;;9.20;86.90;;;;;;5124224;28;20031;-84
2020/12/13 07:15:34;;;;;;;24.00;14.17;;;9.20;86.80;;;;;;5120119;28;20054;-82
2020/12/13 07:18:01;;;;;;;21.77;13.73;;;9.20;86.90;;;;;;5080766;28;20027;-81
2020/12/13 07:20:27;;;;;;;22.27;13.10;;;9.20;86.70;;;;;;5093599;28;20023;-82
2020/12/13 07:22:57;;;;;;;24.00;12.43;;;9.20;86.70;;;;;;5093575;28;20091;-82
2020/12/13 07:25:23;;;;;;;20.93;12.80;;;9.10;86.70;;;;;;5095768;28;20030;-82
2020/12/13 07:27:50;;;;;;;25.70;13.67;;;9.10;86.80;;;;;;5114247;28;20449;-78
2020/12/13 07:30:16;;;;;;;18.03;12.23;;;9.10;86.70;;;;;;5113831;28;20055;-83
2020/12/13 07:32:42;;;;;;;19.03;11.67;;;9.10;86.80;;;;;;5133194;28;20510;-83
2020/12/13 07:35:12;;;;;;;17.47;10.07;;;9.10;86.80;;;;;;5095913;28;20038;-82
2020/12/13 07:37:38;;;;;;;20.33;11.30;;;9.10;86.60;;;;;;5092746;28;20028;-84
2020/12/13 07:40:09;;;;;;;20.50;10.47;;;9.00;86.50;;;;;;5093084;28;20049;-83
2020/12/13 07:42:34;;;;;;;17.27;9.90;;;9.00;86.50;;;;;;5109122;28;20027;-82
2020/12/13 07:45:00;;;;;;;16.83;10.07;;;9.00;86.70;;;;;;5129921;28;20034;-81
2020/12/13 07:47:26;;;;;;;20.37;10.87;;;9.00;86.60;;;;;;5104782;28;20099;-81
2020/12/13 07:49:51;;;;;;;15.37;9.40;;;9.00;86.30;;;;;;5070629;28;20165;-77
2020/12/13 07:52:17;;;;;;;21.27;10.43;;;8.90;86.60;;;;;;5110708;27;20023;-77
2020/12/13 07:54:42;;;;;;;17.17;9.40;;;8.90;86.70;;;;;;5133759;27;20024;-80
2020/12/13 07:57:16;;;;;;;17.77;9.17;;;8.90;86.60;;;;;;5134262;27;20027;-81
2020/12/13 07:59:42;;;;;;;17.63;8.73;;;8.80;86.60;;;;;;5107918;28;20043;-81
2020/12/13 08:02:11;;;;;;;17.50;8.47;;;8.80;86.80;;;;;;5096611;28;20488;-83
2020/12/13 08:04:38;;;;;;;20.33;8.97;;;8.70;86.80;;;;;;5118315;27;20078;-82
2020/12/13 08:07:12;;;;;;;20.13;9.20;;;8.70;86.90;;;;;;5133007;27;20031;-81
2020/12/13 08:09:42;;;;;;;21.37;9.40;;;8.70;86.70;;;;;;5109325;28;20061;-83
2020/12/13 08:12:13;;;;;;;17.40;8.20;;;8.70;86.80;;;;;;5113989;27;20031;-81
2020/12/13 08:14:39;;;;;;;16.97;8.73;;;8.80;86.90;;;;;;5136409;27;20027;-81
2020/12/13 08:17:05;;;;;;;19.87;8.30;;;8.80;86.70;;;;;;5116445;27;20494;-81
2020/12/13 08:19:41;;;;;;;25.23;9.67;;;8.90;86.50;;;;;;5119299;27;20015;-82
2020/12/13 08:22:13;;;;;;;20.87;9.80;;;8.90;86.40;;;;;;5119926;28;20074;-82
2020/12/13 08:24:41;;;;;;;21.40;9.10;;;8.90;86.30;;;;;;5147733;27;20117;-81
2020/12/13 08:27:09;;;;;;;19.67;9.27;;;8.80;85.80;;;;;;5154667;27;20023;-80
2020/12/13 08:29:35;;;;;;;19.80;9.03;;;8.80;86.20;;;;;;5133779;27;20031;-82
2020/12/13 08:32:14;;;;;;;17.90;9.77;;;8.90;86.30;;;;;;5123240;27;20478;-81
2020/12/13 08:34:40;;;;;;;17.73;9.60;;;8.90;86.10;;;;;;5121116;27;20023;-82
2020/12/13 08:37:06;;;;;;;19.50;9.70;;;8.90;86.10;;;;;;5109336;27;20095;-83
2020/12/13 08:39:37;;;;;;;19.47;9.53;;;8.90;86.10;;;;;;5127757;27;20023;-83
2020/12/13 08:42:05;;;;;;;21.30;10.37;;;8.90;86.00;;;;;;5135752;27;20052;-81
2020/12/13 08:44:32;;;;;;;17.50;10.10;;;9.00;86.10;;;;;;5115046;27;20020;-84
2020/12/13 08:47:05;;;;;;;16.20;10.00;;;9.00;86.00;;;;;;5120166;27;20019;-80
2020/12/13 08:49:33;;;;;;;18.80;10.00;;;9.10;85.90;;;;;;5113457;27;20027;-82
2020/12/13 08:52:18;;;;;;;18.00;10.87;;;9.10;85.70;;;;;;5114855;27;20454;-82
2020/12/13 08:55:05;;;;;;;20.27;11.03;;;9.20;85.90;;;;;;5120337;27;20042;-81
2020/12/13 08:57:47;;;;;;;22.07;10.17;;;9.30;85.70;;;;;;5115865;27;20031;-82
2020/12/13 09:00:17;;;;;;;19.83;9.30;;;9.20;85.20;;;;;;5113167;27;20114;-81
2020/12/13 09:02:58;;;;;;;21.40;9.43;;;9.20;85.10;;;;;;5096990;27;20063;-82
2020/12/13 09:05:32;;;;;;;15.83;9.80;;;9.20;84.90;;;;;;5112700;27;20043;-82
2020/12/13 09:07:59;;;;;;;21.57;10.57;;;9.30;84.90;;;;;;5112406;27;20118;-83
2020/12/13 09:10:25;;;;;;;20.53;11.33;;;9.30;84.70;;;;;;5132561;27;20031;-83
2020/12/13 09:12:51;;;;;;;21.87;10.73;;;9.30;85.00;;;;;;5113566;27;20021;-83
2020/12/13 09:15:19;;;;;;;24.27;13.07;;;9.40;84.80;;;;;;5091131;28;20040;-82
2020/12/13 09:17:56;;;;;;;22.77;11.37;;;9.30;84.40;;;;;;5078537;28;20024;-83
2020/12/13 09:20:29;;;;;;;21.77;10.47;;;9.30;84.40;;;;;;5098035;27;20137;-80
2020/12/13 09:23:07;;;;;;;23.90;13.23;;;9.30;84.30;;;;;;5113839;27;20114;-78
2020/12/13 09:25:43;;;;;;;26.57;12.30;;;9.30;84.90;;;;;;5113003;27;20023;-84
2020/12/13 09:28:11;;;;;;;23.47;11.70;;;9.30;84.30;;;;;;5131800;27;20023;-84
2020/12/13 09:30:38;;;;;;;24.30;12.03;;;9.30;84.30;;;;;;5131221;27;20030;-82
2020/12/13 09:33:05;;;;;;;22.77;11.80;;;9.40;84.20;;;;;;5114558;27;20020;-85
2020/12/13 09:35:31;;;;;;;34.00;16.00;;;9.40;84.00;;;;;;5079723;28;20069;-85
2020/12/13 09:37:58;;;;;;;39.70;21.30;;;9.50;84.30;;;;;;5101397;27;20510;-78
2020/12/13 09:40:24;;;;;;;44.17;19.50;;;9.60;84.40;;;;;;5114911;27;20462;-84
2020/12/13 09:42:50;;;;;;;37.70;20.07;;;9.70;84.30;;;;;;5090459;27;20019;-83
2020/12/13 09:45:15;;;;;;;37.40;16.83;;;9.80;83.90;;;;;;5086869;27;20028;-87
2020/12/13 09:47:41;;;;;;;28.03;13.87;;;10.00;83.90;;;;;;5110678;27;20019;-83
2020/12/13 09:50:07;;;;;;;32.87;14.50;;;10.00;83.40;;;;;;5112602;27;20043;-79
2020/12/13 09:52:33;;;;;;;29.87;13.90;;;10.00;82.80;;;;;;5097546;27;20046;-83
2020/12/13 09:54:59;;;;;;;23.77;10.20;;;10.00;82.90;;;;;;5132968;27;20054;-77
2020/12/13 09:57:25;;;;;;;23.30;8.40;;;10.10;82.90;;;;;;5132670;27;20058;-82
2020/12/13 09:59:51;;;;;;;17.60;8.40;;;10.00;81.90;;;;;;5116338;27;20027;-83
2020/12/13 10:02:16;;;;;;;24.80;10.50;;;10.00;81.90;;;;;;5110876;27;20722;-81
2020/12/13 10:04:42;;;;;;;16.53;8.50;;;10.00;82.20;;;;;;5104639;27;20229;-82
2020/12/13 10:09:36;;;;;;;22.63;10.00;;;10.00;81.60;;;;;;5114298;27;20043;-82
2020/12/13 10:12:02;;;;;;;18.40;7.13;;;10.00;81.60;;;;;;5127387;27;20051;-82
2020/12/13 10:14:27;;;;;;;17.23;8.03;;;10.10;81.60;;;;;;5125655;27;20511;-83
2020/12/13 10:16:54;;;;;;;18.43;7.70;;;10.10;81.60;;;;;;5126303;27;20030;-82
2020/12/13 10:19:19;;;;;;;21.57;10.03;;;10.10;81.50;;;;;;5102754;27;20019;-80
2020/12/13 10:21:45;;;;;;;17.47;9.27;;;10.20;81.40;;;;;;5086529;27;20042;-80
2020/12/13 10:24:11;;;;;;;15.97;7.03;;;10.30;81.40;;;;;;5121224;27;20066;-82
2020/12/13 10:26:38;;;;;;;19.07;11.77;;;10.40;80.60;;;;;;5087506;27;20038;-79
2020/12/13 10:29:05;;;;;;;18.10;8.77;;;10.40;80.80;;;;;;5104572;27;20096;-79
2020/12/13 10:31:35;;;;;;;17.40;9.47;;;10.70;80.90;;;;;;5122658;27;20035;-79
2020/12/13 10:34:02;;;;;;;25.03;11.07;;;11.40;80.90;;;;;;5091528;27;20087;-78
2020/12/13 10:36:31;;;;;;;16.30;7.40;;;12.40;79.40;;;;;;5087707;27;20038;-79
2020/12/13 10:38:57;;;;;;;20.37;11.20;;;13.10;76.60;;;;;;5101915;27;20615;-82
2020/12/13 10:41:23;;;;;;;15.63;8.35;;;13.70;75.40;;;;;;5107604;27;20031;-82
2020/12/13 10:43:50;;;;;;;15.43;5.68;;;14.10;73.40;;;;;;5102238;27;20098;-82
2020/12/13 10:46:17;;;;;;;14.02;4.78;;;14.40;72.10;;;;;;5116353;27;20027;-79
2020/12/13 10:48:43;;;;;;;9.77;4.65;;;14.60;70.30;;;;;;5093605;28;20038;-79
2020/12/13 10:51:08;;;;;;;13.88;7.85;;;14.60;68.80;;;;;;5085971;27;20027;-80
2020/12/13 10:53:34;;;;;;;8.68;4.75;;;14.90;69.10;;;;;;5110754;28;20505;-80
2020/12/13 10:56:02;;;;;;;8.23;3.50;;;15.00;67.70;;;;;;5129288;27;20455;-77
2020/12/13 10:58:27;;;;;;;11.20;5.45;;;15.10;66.90;;;;;;5110919;27;20031;-79
2020/12/13 11:00:53;;;;;;;9.20;4.72;;;15.20;67.20;;;;;;5108385;27;20041;-78
2020/12/13 11:03:19;;;;;;;8.50;4.53;;;15.40;66.50;;;;;;5095410;28;20558;-78
2020/12/13 11:05:45;;;;;;;10.10;4.03;;;15.40;65.60;;;;;;5083734;28;20027;-79
2020/12/13 11:08:11;;;;;;;11.60;5.65;;;15.30;64.70;;;;;;5098769;28;20103;-79
2020/12/13 11:10:37;;;;;;;10.27;4.30;;;15.30;64.80;;;;;;5124113;28;20541;-78
2020/12/13 11:13:03;;;;;;;11.93;5.18;;;15.30;65.70;;;;;;5094825;28;20118;-77
2020/12/13 11:15:29;;;;;;;11.60;5.55;;;15.20;64.30;;;;;;5107625;28;20027;-79
2020/12/13 11:17:54;;;;;;;12.82;5.90;;;15.10;65.70;;;;;;5129923;28;20451;-82
2020/12/13 11:20:20;;;;;;;11.13;5.10;;;15.00;65.20;;;;;;5089798;28;20024;-81
2020/12/13 11:22:46;;;;;;;14.38;7.10;;;14.90;65.50;;;;;;5131233;28;20039;-81
2020/12/13 11:25:11;;;;;;;11.20;6.38;;;14.90;66.30;;;;;;5110108;28;20072;-81
2020/12/13 11:27:37;;;;;;;10.60;3.97;;;14.80;64.90;;;;;;5103234;27;20031;-80
2020/12/13 11:30:09;;;;;;;13.15;6.22;;;14.70;63.90;;;;;;5126067;27;20027;-78
2020/12/13 11:32:34;;;;;;;13.77;6.18;;;14.60;66.40;;;;;;5105994;27;20038;-80
2020/12/13 11:35:00;;;;;;;6.53;3.15;;;14.50;66.30;;;;;;5107144;27;20671;-81
2020/12/13 11:37:26;;;;;;;9.57;4.57;;;14.40;64.30;;;;;;5104523;27;20035;-78
2020/12/13 11:39:52;;;;;;;7.40;3.83;;;14.10;63.20;;;;;;5106503;27;20091;-78
2020/12/13 11:42:19;;;;;;;12.48;5.72;;;13.90;66.00;;;;;;5076327;27;20533;-78
2020/12/13 11:44:45;;;;;;;14.32;6.70;;;13.80;67.60;;;;;;5115762;27;20463;-80
2020/12/13 11:47:11;;;;;;;9.68;3.88;;;13.80;67.60;;;;;;5115900;27;20028;-79
2020/12/13 11:49:37;;;;;;;10.85;4.35;;;13.70;66.30;;;;;;5114652;27;20042;-79
2020/12/13 11:52:03;;;;;;;8.68;4.65;;;13.50;66.00;;;;;;5116161;27;20041;-78
2020/12/13 11:54:28;;;;;;;10.68;6.15;;;13.50;67.00;;;;;;5114366;27;20023;-78
2020/12/13 11:56:57;;;;;;;9.45;5.55;;;13.40;66.60;;;;;;5115089;27;20438;-79
2020/12/13 11:59:24;;;;;;;12.57;4.88;;;13.40;68.10;;;;;;5134846;27;20296;-80
2020/12/13 12:01:50;;;;;;;11.63;3.90;;;13.40;68.70;;;;;;5110948;27;20059;-79
2020/12/13 12:04:15;;;;;;;7.07;3.28;;;13.30;67.70;;;;;;5129742;27;20042;-78
2020/12/13 12:06:45;;;;;;;13.70;6.33;;;13.00;65.80;;;;;;5093064;28;20035;-79
2020/12/13 12:09:11;;;;;;;8.98;3.35;;;12.80;69.60;;;;;;5092835;28;20039;-80
2020/12/13 12:11:37;;;;;;;10.07;3.15;;;12.70;68.40;;;;;;5103366;27;20039;-80
2020/12/13 12:14:05;;;;;;;16.43;6.93;;;12.50;67.20;;;;;;5082172;27;20023;-80
2020/12/13 12:16:31;;;;;;;13.03;5.57;;;12.40;69.20;;;;;;5081676;27;20088;-80
2020/12/13 12:18:57;;;;;;;12.50;5.23;;;12.20;69.50;;;;;;5114952;27;20039;-79
2020/12/13 12:21:25;;;;;;;13.07;5.47;;;12.00;69.30;;;;;;5114590;27;20036;-78
2020/12/13 12:23:52;;;;;;;18.83;9.03;;;11.90;71.30;;;;;;5097306;27;20450;-81
2020/12/13 12:26:19;;;;;;;9.83;4.07;;;11.80;72.00;;;;;;5109649;27;20076;-81
2020/12/13 12:28:46;;;;;;;9.07;3.07;;;11.60;70.60;;;;;;5111146;27;20024;-80
2020/12/13 12:31:17;;;;;;;9.40;5.13;;;11.50;70.70;;;;;;5104874;27;20043;-81
2020/12/13 12:33:43;;;;;;;12.77;4.07;;;11.30;72.10;;;;;;5125334;27;20023;-79
2020/12/13 12:36:14;;;;;;;9.93;3.73;;;11.30;72.30;;;;;;5121131;27;20031;-78
2020/12/13 12:38:40;;;;;;;12.33;4.20;;;11.20;72.30;;;;;;5110277;28;20017;-80
2020/12/13 12:41:11;;;;;;;9.20;3.77;;;11.00;71.90;;;;;;5118984;28;20048;-77
2020/12/13 12:43:37;;;;;;;10.43;5.37;;;11.00;72.80;;;;;;5108971;27;20125;-82
2020/12/13 12:46:03;;;;;;;10.43;4.03;;;11.00;72.10;;;;;;5109842;27;20163;-80
2020/12/13 12:48:28;;;;;;;10.67;3.73;;;10.90;72.50;;;;;;5124618;27;20023;-79